createdAt,value
2022-11-14T00:01:32.721Z,67.22
2022-11-14T00:04:19.346Z,66.99
2022-11-14T00:07:05.319Z,67.43
2022-11-14T00:09:51.540Z,67.10
2022-11-14T00:12:37.677Z,67.34
2022-11-14T00:15:24.018Z,67.21
2022-11-14T00:18:09.761Z,67.61
2022-11-14T00:20:56.103Z,67.62
2022-11-14T00:23:41.753Z,67.23
2022-11-14T00:26:28.235Z,67.33
2022-11-14T00:29:15.848Z,67.78
2022-11-14T00:32:01.901Z,67.36
2022-11-14T00:34:48.670Z,67.68
2022-11-14T00:37:35.717Z,67.35
2022-11-14T00:40:21.454Z,67.65
2022-11-14T00:43:07.699Z,67.60
2022-11-14T00:45:53.662Z,67.64
2022-11-14T00:48:40.230Z,67.91
2022-11-14T00:51:26.046Z,68.23
2022-11-14T00:54:12.758Z,68.10
2022-11-14T00:56:58.699Z,68.62
2022-11-14T00:59:44.798Z,69.02
2022-11-14T01:02:31.160Z,70.00
2022-11-14T01:05:17.680Z,69.50
2022-11-14T01:08:03.485Z,69.69
2022-11-14T01:10:51.331Z,69.80
2022-11-14T01:13:37.809Z,69.88
2022-11-14T01:16:24.180Z,69.71
2022-11-14T01:19:10.051Z,70.01
2022-11-14T01:21:56.235Z,69.62
2022-11-14T01:24:42.225Z,69.32
2022-11-14T01:27:31.995Z,69.50
2022-11-14T01:30:18.338Z,69.75
2022-11-14T01:33:06.111Z,70.23
2022-11-14T01:35:52.259Z,70.74
2022-11-14T01:38:38.572Z,70.39
2022-11-14T01:41:25.573Z,70.85
2022-11-14T01:44:45.812Z,70.59
2022-11-14T01:47:33.685Z,70.72
2022-11-14T01:50:19.941Z,70.86
2022-11-14T01:53:06.220Z,70.58
2022-11-14T01:55:55.383Z,70.47
2022-11-14T01:58:50.585Z,70.31
2022-11-14T02:01:45.184Z,70.45
2022-11-14T02:04:41.196Z,70.77
2022-11-14T02:07:31.189Z,70.47
2022-11-14T02:10:21.224Z,70.29
2022-11-14T02:13:08.551Z,70.39
2022-11-14T02:15:54.751Z,69.74
2022-11-14T02:18:40.942Z,69.90
2022-11-14T02:21:27.210Z,70.09
2022-11-14T02:24:14.354Z,70.21
2022-11-14T02:27:00.043Z,69.89
2022-11-14T02:29:46.274Z,69.82
2022-11-14T02:32:45.018Z,69.65
2022-11-14T02:35:38.732Z,70.22
2022-11-14T02:38:24.806Z,70.35
2022-11-14T02:41:11.092Z,70.61
2022-11-14T02:43:57.051Z,70.81
2022-11-14T02:46:43.500Z,70.61
2022-11-14T02:49:29.524Z,71.21
2022-11-14T02:52:15.526Z,71.41
2022-11-14T02:55:02.078Z,71.49
2022-11-14T02:57:48.114Z,71.46
2022-11-14T03:00:36.722Z,71.95
2022-11-14T03:03:27.268Z,72.45
2022-11-14T03:06:13.745Z,72.69
2022-11-14T03:09:00.144Z,72.83
2022-11-14T03:11:45.849Z,73.10
2022-11-14T03:14:32.301Z,73.36
2022-11-14T03:17:18.465Z,73.52
2022-11-14T03:20:06.077Z,73.70
2022-11-14T03:22:52.170Z,74.28
2022-11-14T03:25:38.487Z,74.15
2022-11-14T03:28:24.273Z,74.41
2022-11-14T03:31:12.630Z,74.90
2022-11-14T03:33:58.816Z,75.01
2022-11-14T03:36:45.439Z,75.00
2022-11-14T03:39:31.236Z,75.29
2022-11-14T03:42:17.216Z,75.64
2022-11-14T03:45:03.869Z,75.97
2022-11-14T03:47:49.940Z,76.24
2022-11-14T03:50:36.205Z,76.48
2022-11-14T03:53:22.967Z,77.26
2022-11-14T03:56:08.916Z,78.25
2022-11-14T03:58:55.029Z,78.28
2022-11-14T04:01:41.048Z,77.89
2022-11-14T04:04:27.274Z,78.08
2022-11-14T04:07:13.305Z,78.32
2022-11-14T04:09:59.723Z,79.03
2022-11-14T04:12:54.161Z,78.40
2022-11-14T04:15:40.508Z,78.28
2022-11-14T04:18:27.406Z,78.35
2022-11-14T04:21:14.210Z,78.68
2022-11-14T04:24:00.284Z,79.21
2022-11-14T04:26:46.397Z,79.29
2022-11-14T04:29:32.150Z,79.68
2022-11-14T04:32:18.398Z,80.39
2022-11-14T04:35:04.778Z,80.68
2022-11-14T04:37:51.075Z,80.50
2022-11-14T04:40:36.993Z,80.25
2022-11-14T04:43:23.249Z,80.32
2022-11-14T04:46:09.157Z,80.57
2022-11-14T04:48:55.327Z,81.07
2022-11-14T04:51:41.373Z,81.10
2022-11-14T04:54:27.575Z,81.07
2022-11-14T04:57:14.735Z,81.25
2022-11-14T05:00:00.997Z,81.94
2022-11-14T05:02:46.976Z,82.03
2022-11-14T05:05:35.959Z,82.10
2022-11-14T05:08:25.278Z,82.42
2022-11-14T05:11:16.509Z,82.86
2022-11-14T05:14:03.397Z,82.72
2022-11-14T05:16:49.727Z,82.67
2022-11-14T05:19:35.660Z,82.67
2022-11-14T05:22:22.153Z,83.17
2022-11-14T05:25:08.854Z,82.97
2022-11-14T05:27:55.680Z,83.43
2022-11-14T05:30:41.586Z,84.03
2022-11-14T05:33:27.690Z,83.88
2022-11-14T05:36:16.926Z,84.06
2022-11-14T05:39:03.562Z,84.12
2022-11-14T05:41:49.657Z,84.56
2022-11-14T05:44:35.910Z,84.09
2022-11-14T05:47:21.817Z,84.10
2022-11-14T05:50:08.507Z,84.75
2022-11-14T05:52:54.146Z,85.01
2022-11-14T05:55:40.063Z,84.58
2022-11-14T05:58:26.240Z,84.21
2022-11-14T06:01:17.188Z,84.43
2022-11-14T06:04:06.762Z,84.48
2022-11-14T06:06:53.157Z,84.90
2022-11-14T06:09:39.355Z,84.87
2022-11-14T06:12:25.989Z,84.31
2022-11-14T06:15:12.000Z,82.88
2022-11-14T06:17:58.443Z,82.78
2022-11-14T06:20:44.663Z,82.68
2022-11-14T06:23:30.986Z,82.16
2022-11-14T06:26:25.665Z,81.81
2022-11-14T06:29:11.839Z,81.86
2022-11-14T06:31:57.972Z,82.28
2022-11-14T06:34:44.214Z,82.45
2022-11-14T06:37:33.543Z,83.03
2022-11-14T06:40:20.721Z,83.34
2022-11-14T06:43:07.062Z,83.28
2022-11-14T06:45:56.765Z,83.18
2022-11-14T06:48:43.979Z,82.58
2022-11-14T06:51:30.439Z,82.80
2022-11-14T06:54:16.163Z,82.67
2022-11-14T06:57:02.319Z,82.71
2022-11-14T06:59:48.493Z,82.49
2022-11-14T07:02:34.579Z,81.99
2022-11-14T07:05:20.326Z,81.77
2022-11-14T07:08:06.715Z,81.63
2022-11-14T07:10:53.233Z,81.50
2022-11-14T07:13:39.687Z,81.54
2022-11-14T07:16:37.619Z,81.08
2022-11-14T07:19:23.882Z,81.01
2022-11-14T07:22:10.386Z,80.48
2022-11-14T07:24:56.562Z,79.92
2022-11-14T07:27:42.444Z,79.73
2022-11-14T07:30:28.593Z,79.48
2022-11-14T07:33:14.657Z,79.81
2022-11-14T07:36:01.295Z,79.81
2022-11-14T07:38:47.694Z,79.56
2022-11-14T07:41:34.164Z,79.85
2022-11-14T07:44:20.018Z,80.01
2022-11-14T07:47:06.230Z,80.09
2022-11-14T07:49:52.297Z,79.55
2022-11-14T07:52:38.752Z,80.09
2022-11-14T07:55:24.718Z,79.84
2022-11-14T07:58:11.486Z,79.55
2022-11-14T08:01:02.235Z,79.56
2022-11-14T08:03:48.859Z,79.20
2022-11-14T08:06:35.219Z,79.48
2022-11-14T08:09:23.145Z,79.27
2022-11-14T08:12:08.975Z,79.50
2022-11-14T08:14:55.478Z,79.33
2022-11-14T08:17:41.605Z,79.61
2022-11-14T08:20:28.529Z,79.30
2022-11-14T08:23:15.113Z,79.20
2022-11-14T08:26:01.881Z,78.88
2022-11-14T08:28:47.874Z,79.07
2022-11-14T08:31:34.256Z,78.79
2022-11-14T08:34:22.475Z,77.79
2022-11-14T08:37:08.755Z,77.50
2022-11-14T08:39:54.878Z,77.88
2022-11-14T08:42:41.400Z,77.87
2022-11-14T08:45:27.539Z,77.71
2022-11-14T08:48:14.275Z,77.28
2022-11-14T08:51:06.187Z,77.26
2022-11-14T08:53:53.088Z,77.06
2022-11-14T08:56:39.294Z,76.44
2022-11-14T08:59:25.426Z,75.89
2022-11-14T09:02:16.234Z,75.68
2022-11-14T09:05:02.658Z,75.32
2022-11-14T09:07:48.877Z,75.04
2022-11-14T09:10:37.369Z,74.22
2022-11-14T09:13:23.689Z,73.85
2022-11-14T09:16:10.142Z,73.17
2022-11-14T09:18:56.505Z,72.44
2022-11-14T09:21:43.169Z,71.88
2022-11-14T09:24:30.008Z,71.60
2022-11-14T09:27:17.238Z,71.14
2022-11-14T09:30:06.016Z,70.97
2022-11-14T09:32:52.856Z,70.03
2022-11-14T09:35:39.093Z,68.57
2022-11-14T09:38:26.552Z,68.09
2022-11-14T09:41:33.881Z,68.45
2022-11-14T09:44:47.724Z,67.80
2022-11-14T09:47:42.860Z,67.38
2022-11-14T09:50:37.417Z,67.42
2022-11-14T09:53:52.944Z,67.31
2022-11-14T09:56:39.427Z,66.63
2022-11-14T09:59:26.634Z,66.39
2022-11-14T10:03:03.328Z,66.21
2022-11-14T10:06:08.628Z,65.66
2022-11-14T10:09:06.789Z,65.01
2022-11-14T10:12:36.450Z,65.29
2022-11-14T10:15:52.269Z,64.53
2022-11-14T10:19:30.854Z,63.95
2022-11-14T10:22:58.621Z,63.61
2022-11-14T10:26:19.927Z,63.23
2022-11-14T10:29:27.586Z,63.30
2022-11-14T10:32:22.370Z,61.85
2022-11-14T10:35:28.745Z,61.33
2022-11-14T10:39:07.306Z,61.57
2022-11-14T10:42:03.185Z,60.63
2022-11-14T10:45:10.619Z,60.11
2022-11-14T10:48:15.995Z,60.42
2022-11-14T10:51:34.866Z,59.12
2022-11-14T10:55:10.138Z,59.41
2022-11-14T10:57:58.017Z,58.96
2022-11-14T11:00:44.633Z,58.00
2022-11-14T11:03:59.255Z,57.49
2022-11-14T11:06:46.066Z,56.06
2022-11-14T11:09:51.493Z,55.57
2022-11-14T11:12:37.919Z,55.70
2022-11-14T11:15:32.283Z,55.19
2022-11-14T11:18:33.618Z,55.86
2022-11-14T11:21:23.420Z,55.50
2022-11-14T11:24:10.172Z,54.61
2022-11-14T11:27:29.222Z,53.71
2022-11-14T11:30:23.281Z,53.53
2022-11-14T11:33:22.412Z,52.70
2022-11-14T11:36:19.545Z,52.70
2022-11-14T11:39:05.617Z,52.27
2022-11-14T11:42:11.055Z,50.76
2022-11-14T11:45:04.157Z,51.97
2022-11-14T11:48:19.778Z,51.57
2022-11-14T11:51:14.145Z,51.30
2022-11-14T11:54:24.760Z,50.41
2022-11-14T11:57:21.403Z,49.51
2022-11-14T12:00:21.174Z,49.10
2022-11-14T12:03:14.387Z,48.54
2022-11-14T12:06:24.863Z,47.99
2022-11-14T12:09:22.218Z,46.72
2022-11-14T12:12:35.630Z,46.04
2022-11-14T12:16:24.665Z,45.08
2022-11-14T12:19:41.353Z,44.87
2022-11-14T12:22:46.734Z,44.29
2022-11-14T12:26:17.719Z,43.47
2022-11-14T12:29:12.857Z,42.39
2022-11-14T12:32:06.869Z,42.01
2022-11-14T12:34:53.547Z,41.33
2022-11-14T12:37:50.042Z,40.99
2022-11-14T12:40:48.387Z,40.67
2022-11-14T12:43:45.100Z,39.84
2022-11-14T12:47:05.853Z,38.95
2022-11-14T12:49:55.831Z,39.04
2022-11-14T12:52:42.922Z,38.85
2022-11-14T12:55:29.509Z,37.90
2022-11-14T12:58:24.794Z,37.85
2022-11-14T13:01:48.256Z,37.21
2022-11-14T13:04:57.846Z,36.36
2022-11-14T13:07:48.648Z,36.47
2022-11-14T13:10:42.034Z,36.62
2022-11-14T13:13:46.948Z,36.25
2022-11-14T13:16:52.060Z,35.61
2022-11-14T13:20:05.208Z,35.33
2022-11-14T13:22:51.430Z,35.26
2022-11-14T13:25:37.573Z,34.10
2022-11-14T13:28:38.693Z,34.12
2022-11-14T13:31:35.332Z,34.12
2022-11-14T13:34:37.397Z,33.93
2022-11-14T13:37:47.802Z,33.60
2022-11-14T13:41:11.785Z,33.19
2022-11-14T13:44:34.414Z,33.06
2022-11-14T13:48:16.281Z,32.81
2022-11-14T13:51:28.988Z,32.16
2022-11-14T13:54:18.252Z,31.41
2022-11-14T13:57:35.377Z,31.58
2022-11-14T14:00:21.779Z,31.53
2022-11-14T14:03:28.253Z,31.01
2022-11-14T14:07:05.405Z,31.24
2022-11-14T14:10:08.570Z,31.64
2022-11-14T14:13:23.423Z,32.47
2022-11-14T14:17:01.693Z,34.16
2022-11-14T14:20:18.742Z,35.70
2022-11-14T14:54:04.051Z,50.94
2022-11-14T14:57:02.842Z,51.82
2022-11-14T15:00:05.981Z,52.80
2022-11-14T15:02:56.616Z,53.53
2022-11-14T15:05:43.155Z,54.10
2022-11-14T15:08:31.950Z,54.76
2022-11-14T15:11:18.895Z,55.64
2022-11-14T15:14:05.208Z,56.05
2022-11-14T15:16:53.305Z,56.79
2022-11-14T15:19:45.748Z,57.35
2022-11-14T15:22:33.057Z,57.58
2022-11-14T15:25:20.440Z,57.87
2022-11-14T15:28:21.017Z,58.27
2022-11-14T15:31:17.184Z,58.44
2022-11-14T15:34:34.408Z,59.45
2022-11-14T15:37:22.851Z,59.54
2022-11-14T15:40:39.429Z,59.89
2022-11-14T15:43:50.619Z,59.92
2022-11-14T15:46:46.760Z,60.44
2022-11-14T15:49:33.822Z,60.82
2022-11-14T15:52:47.512Z,61.28
2022-11-14T15:55:33.496Z,61.66
2022-11-14T15:58:29.082Z,61.93
2022-11-14T16:01:23.938Z,61.98
2022-11-14T16:04:23.016Z,62.43
2022-11-14T16:07:14.696Z,62.71
2022-11-14T16:10:01.311Z,62.65
2022-11-14T16:12:52.255Z,62.76
2022-11-14T16:15:39.847Z,62.95
2022-11-14T16:18:25.718Z,63.02
2022-11-14T16:21:18.231Z,63.06
2022-11-14T16:24:05.839Z,63.34
2022-11-14T16:26:52.437Z,63.70
2022-11-14T16:29:38.510Z,63.91
2022-11-14T16:32:26.728Z,64.44
2022-11-14T16:35:14.785Z,64.12
2022-11-14T16:38:01.102Z,64.26
2022-11-14T16:40:47.239Z,63.96
2022-11-14T16:43:33.953Z,63.71
2022-11-14T16:46:19.783Z,63.23
2022-11-14T16:49:05.850Z,62.93
2022-11-14T16:51:52.433Z,62.70
2022-11-14T16:54:38.802Z,62.12
2022-11-14T16:57:25.304Z,62.04
2022-11-14T17:00:13.450Z,61.35
2022-11-14T17:02:59.541Z,60.89
2022-11-14T17:05:48.652Z,60.50
2022-11-14T17:08:34.740Z,60.26
2022-11-14T17:11:21.354Z,59.87
2022-11-14T17:14:07.629Z,60.13
2022-11-14T17:16:53.953Z,60.38
2022-11-14T17:19:45.921Z,60.13
2022-11-14T17:22:32.621Z,60.24
2022-11-14T17:25:18.894Z,59.86
2022-11-14T17:28:05.200Z,59.96
2022-11-14T17:30:51.259Z,60.33
2022-11-14T17:33:38.344Z,60.89
2022-11-14T17:36:29.109Z,61.13
2022-11-14T17:39:15.413Z,61.08
2022-11-14T17:42:01.275Z,61.63
2022-11-14T17:44:47.925Z,61.08
2022-11-14T17:47:33.711Z,61.42
2022-11-14T17:50:19.782Z,61.14
2022-11-14T17:53:06.631Z,61.44
2022-11-14T17:56:01.815Z,61.16
2022-11-14T17:58:51.141Z,60.90
2022-11-14T18:01:43.612Z,61.47
2022-11-14T18:04:31.802Z,61.73
2022-11-14T18:07:20.603Z,61.39
2022-11-14T18:10:07.181Z,60.65
2022-11-14T18:12:55.495Z,60.77
2022-11-14T18:15:41.439Z,60.61
2022-11-14T18:18:35.259Z,60.25
2022-11-14T18:21:31.781Z,60.04
2022-11-14T18:24:18.438Z,60.29
2022-11-14T18:27:04.358Z,60.59
2022-11-14T18:29:50.677Z,60.57
2022-11-14T18:32:36.582Z,60.88
2022-11-14T18:35:22.687Z,60.83
2022-11-14T18:38:08.525Z,61.63
2022-11-14T18:40:57.516Z,61.68
2022-11-14T18:43:45.128Z,61.23
2022-11-14T18:46:37.200Z,61.89
2022-11-14T18:49:28.395Z,61.52
2022-11-14T18:52:17.387Z,61.21
2022-11-14T18:55:08.420Z,60.96
2022-11-14T18:57:54.349Z,61.16
2022-11-14T19:00:40.317Z,61.05
2022-11-14T19:03:27.007Z,60.90
2022-11-14T19:06:14.046Z,61.14
2022-11-14T19:09:10.587Z,61.71
2022-11-14T19:12:15.660Z,61.84
2022-11-14T19:15:02.384Z,62.23
2022-11-14T19:17:49.032Z,62.10
2022-11-14T19:20:37.700Z,63.04
2022-11-14T19:23:24.216Z,62.79
2022-11-14T19:26:11.760Z,63.21
2022-11-14T19:29:06.487Z,63.31
2022-11-14T19:31:54.698Z,64.08
2022-11-14T19:34:46.810Z,63.53
2022-11-14T19:37:34.400Z,63.66
2022-11-14T19:40:20.757Z,63.86
2022-11-14T19:43:09.180Z,63.69
2022-11-14T19:46:00.133Z,63.85
2022-11-14T19:48:47.883Z,63.82
2022-11-14T19:51:34.734Z,64.01
2022-11-14T19:54:21.007Z,63.97
2022-11-14T19:57:06.962Z,64.27
2022-11-14T19:59:53.540Z,64.97
2022-11-14T20:02:40.619Z,64.71
2022-11-14T20:05:27.179Z,64.76
2022-11-14T20:08:13.229Z,64.65
2022-11-14T20:11:03.450Z,64.94
2022-11-14T20:13:50.698Z,64.42
2022-11-14T20:16:38.767Z,64.75
2022-11-14T20:19:25.039Z,65.04
2022-11-14T20:22:11.730Z,65.01
2022-11-14T20:24:57.858Z,65.50
2022-11-14T20:27:44.115Z,65.48
2022-11-14T20:30:30.230Z,65.97
2022-11-14T20:33:16.959Z,66.27
2022-11-14T20:36:10.839Z,66.13
2022-11-14T20:38:59.787Z,66.61
2022-11-14T20:41:45.790Z,66.61
2022-11-14T20:44:32.013Z,66.60
2022-11-14T20:47:18.489Z,66.41
2022-11-14T20:50:05.903Z,66.73
2022-11-14T20:52:51.932Z,67.12
2022-11-14T20:55:38.461Z,66.91
2022-11-14T20:58:24.490Z,67.11
2022-11-14T21:01:11.465Z,66.82
2022-11-14T21:03:58.629Z,66.74
2022-11-14T21:06:46.116Z,67.50
2022-11-14T21:09:32.838Z,67.20
2022-11-14T21:12:19.545Z,67.65
2022-11-14T21:15:07.504Z,67.48
2022-11-14T21:17:54.567Z,67.30
2022-11-14T21:20:40.427Z,67.64
2022-11-14T21:23:26.813Z,67.41
2022-11-14T21:26:19.076Z,67.50
2022-11-14T21:29:12.137Z,67.84
2022-11-14T21:32:01.709Z,67.92
2022-11-14T21:34:53.103Z,68.14
2022-11-14T21:37:38.927Z,68.15
2022-11-14T21:40:27.808Z,68.23
2022-11-14T21:43:15.750Z,68.05
2022-11-14T21:46:05.948Z,68.10
2022-11-14T21:48:52.856Z,68.02
2022-11-14T21:51:39.375Z,68.23
2022-11-14T21:54:27.743Z,67.90
2022-11-14T21:57:15.983Z,67.33
2022-11-14T22:00:02.736Z,66.91
2022-11-14T22:06:32.033Z,67.36
2022-11-14T22:10:28.383Z,67.56
2022-11-14T22:13:49.466Z,68.23
2022-11-14T22:17:38.174Z,67.00
2022-11-14T22:25:37.436Z,67.05
2022-11-14T22:28:54.861Z,66.72
2022-11-14T22:31:58.269Z,66.61
2022-11-14T22:35:11.150Z,66.96
2022-11-14T22:39:16.615Z,66.59
2022-11-14T22:43:35.927Z,65.50
2022-11-14T22:46:35.110Z,65.97
2022-11-14T22:49:21.514Z,66.41
2022-11-14T22:52:07.683Z,65.97
2022-11-14T22:54:57.142Z,66.56
2022-11-14T22:57:57.109Z,66.52
2022-11-14T23:01:05.720Z,67.06
2022-11-14T23:04:07.026Z,67.55
2022-11-14T23:06:59.775Z,67.69
2022-11-14T23:10:38.359Z,67.80
2022-11-14T23:14:19.622Z,67.87
2022-11-14T23:17:12.632Z,67.56
2022-11-14T23:20:28.680Z,68.20
2022-11-14T23:23:15.943Z,67.97
2022-11-14T23:26:37.926Z,68.02
2022-11-14T23:29:24.789Z,67.79
2022-11-14T23:32:10.937Z,66.81
2022-11-14T23:34:58.061Z,66.88
2022-11-14T23:38:09.262Z,66.59
2022-11-14T23:41:09.824Z,66.40
2022-11-14T23:44:07.956Z,66.86
2022-11-14T23:47:54.979Z,66.75
2022-11-14T23:50:42.224Z,67.24
2022-11-14T23:53:35.256Z,66.75
2022-11-14T23:56:26.716Z,66.95
2022-11-14T23:59:17.204Z,66.92
